createdAt,value
2022-08-27T00:01:43.054Z,100297.84
2022-08-27T00:04:50.645Z,100293.05
2022-08-27T00:07:55.210Z,100296.65
2022-08-27T00:11:01.655Z,100289.05
2022-08-27T00:14:08.199Z,100290.41
2022-08-27T00:17:14.424Z,100285.88
2022-08-27T00:20:43.099Z,100282.47
2022-08-27T00:23:48.921Z,100283.28
2022-08-27T00:26:57.471Z,100279.59
2022-08-27T00:30:06.100Z,100275.94
2022-08-27T00:33:11.676Z,100277.00
2022-08-27T00:36:18.221Z,100273.34
2022-08-27T00:39:24.480Z,100264.31
2022-08-27T00:42:31.478Z,100265.66
2022-08-27T00:45:38.481Z,100264.25
2022-08-27T00:48:47.390Z,100270.09
2022-08-27T00:51:53.959Z,100260.84
2022-08-27T00:55:00.536Z,100258.31
2022-08-27T00:58:17.445Z,100257.15
2022-08-27T01:01:26.314Z,100265.50
2022-08-27T01:04:34.383Z,100268.54
2022-08-27T01:07:43.762Z,100271.27
2022-08-27T01:10:52.340Z,100275.40
2022-08-27T01:14:00.982Z,100273.11
2022-08-27T01:17:13.377Z,100277.22
2022-08-27T01:20:22.804Z,100273.50
2022-08-27T01:24:09.118Z,100278.44
2022-08-27T01:27:16.549Z,100284.80
2022-08-27T01:30:22.978Z,100289.19
2022-08-27T01:33:30.784Z,100284.38
2022-08-27T01:36:35.711Z,100281.25
2022-08-27T01:39:41.574Z,100277.90
2022-08-27T01:42:54.494Z,100287.66
2022-08-27T01:46:03.455Z,100287.34
2022-08-27T01:49:11.541Z,100296.20
2022-08-27T01:52:18.659Z,100298.37
2022-08-27T01:55:26.345Z,100299.42
2022-08-27T01:58:33.921Z,100301.61
2022-08-27T02:01:39.679Z,100299.39
2022-08-27T02:04:47.065Z,100300.73
2022-08-27T02:07:54.040Z,100297.94
2022-08-27T02:11:01.659Z,100298.77
2022-08-27T02:14:12.926Z,100306.82
2022-08-27T02:17:19.191Z,100295.92
2022-08-27T02:20:29.189Z,100292.59
2022-08-27T02:23:35.927Z,100296.17
2022-08-27T02:26:42.195Z,100297.85
2022-08-27T02:29:49.693Z,100300.36
2022-08-27T02:32:56.695Z,100300.10
2022-08-27T02:36:03.447Z,100303.20
2022-08-27T02:39:09.506Z,100297.06
2022-08-27T02:42:15.048Z,100297.28
2022-08-27T02:45:21.333Z,100298.88
2022-08-27T02:48:28.618Z,100308.95
2022-08-27T02:51:33.752Z,100311.68
2022-08-27T02:54:41.765Z,100314.44
2022-08-27T02:57:50.473Z,100309.94
2022-08-27T03:00:59.860Z,100305.19
2022-08-27T03:04:05.579Z,100309.05
2022-08-27T03:07:18.706Z,100317.14
2022-08-27T03:10:21.793Z,100310.45
2022-08-27T03:13:31.231Z,100312.45
2022-08-27T03:16:36.882Z,100315.05
2022-08-27T03:19:44.602Z,100318.72
2022-08-27T03:22:50.147Z,100316.84
2022-08-27T03:26:06.552Z,100319.12
2022-08-27T03:29:12.732Z,100323.93
2022-08-27T03:32:20.510Z,100322.06
2022-08-27T03:35:29.565Z,100324.87
2022-08-27T03:38:36.224Z,100329.69
2022-08-27T03:41:54.111Z,100328.41
2022-08-27T03:44:49.986Z,100336.89
2022-08-27T03:47:59.375Z,100336.97
2022-08-27T03:51:04.969Z,100332.33
2022-08-27T03:54:10.819Z,100328.19
2022-08-27T03:57:17.621Z,100327.67
2022-08-27T04:00:24.953Z,100326.08
2022-08-27T04:03:30.941Z,100325.30
2022-08-27T04:06:36.397Z,100325.04
2022-08-27T04:09:44.713Z,100326.77
2022-08-27T04:12:50.926Z,100323.47
2022-08-27T04:16:03.986Z,100321.52
2022-08-27T04:19:22.915Z,100318.47
2022-08-27T04:22:29.031Z,100321.29
2022-08-27T04:25:35.760Z,100310.17
2022-08-27T04:28:42.614Z,100308.27
2022-08-27T04:31:50.692Z,100300.51
2022-08-27T04:34:57.576Z,100299.44
2022-08-27T04:38:04.457Z,100288.60
2022-08-27T04:41:30.896Z,100303.49
2022-08-27T04:44:37.987Z,100303.23
2022-08-27T04:47:44.152Z,100304.68
2022-08-27T04:50:49.785Z,100296.82
2022-08-27T04:53:57.520Z,100304.36
2022-08-27T04:57:05.511Z,100297.70
2022-08-27T05:00:14.557Z,100301.37
2022-08-27T05:03:21.925Z,100302.02
2022-08-27T05:06:28.241Z,100302.91
2022-08-27T05:09:34.135Z,100309.44
2022-08-27T05:13:02.033Z,100307.36
2022-08-27T05:16:17.946Z,100311.36
2022-08-27T05:19:26.426Z,100308.68
2022-08-27T05:22:32.297Z,100311.09
2022-08-27T05:25:39.197Z,100312.02
2022-08-27T05:28:44.622Z,100309.88
2022-08-27T05:31:51.496Z,100309.38
2022-08-27T05:34:58.074Z,100310.83
2022-08-27T05:38:03.129Z,100308.61
2022-08-27T05:41:23.727Z,100308.06
2022-08-27T05:44:46.569Z,100306.91
2022-08-27T05:47:44.867Z,100306.91
2022-08-27T05:50:46.580Z,100302.70
2022-08-27T05:53:53.175Z,100303.28
2022-08-27T05:57:01.385Z,100300.22
2022-08-27T06:00:27.565Z,100306.72
2022-08-27T06:03:33.864Z,100304.23
2022-08-27T06:06:42.219Z,100307.89
2022-08-27T06:09:48.705Z,100298.69
2022-08-27T06:12:57.020Z,100304.63
2022-08-27T06:16:04.324Z,100305.25
2022-08-27T06:19:12.885Z,100297.16
2022-08-27T06:22:19.940Z,100302.80
2022-08-27T06:25:25.963Z,100299.77
2022-08-27T06:28:37.662Z,100297.27
2022-08-27T06:31:44.469Z,100295.35
2022-08-27T06:34:50.431Z,100300.13
2022-08-27T06:37:56.753Z,100299.31
2022-08-27T06:41:02.955Z,100297.11
2022-08-27T06:44:09.469Z,100299.94
2022-08-27T06:47:16.558Z,100298.59
2022-08-27T06:50:28.938Z,100293.29
2022-08-27T06:53:35.549Z,100296.66
2022-08-27T06:56:40.800Z,100295.02
2022-08-27T06:59:48.593Z,100287.45
2022-08-27T07:02:54.576Z,100283.27
2022-08-27T07:05:59.981Z,100278.22
2022-08-27T07:09:05.857Z,100280.77
2022-08-27T07:12:12.147Z,100274.31
2022-08-27T07:15:21.748Z,100264.81
2022-08-27T07:18:27.892Z,100271.00
2022-08-27T07:21:33.329Z,100270.14
2022-08-27T07:24:39.483Z,100257.28
2022-08-27T07:27:46.254Z,100268.52
2022-08-27T07:30:52.989Z,100258.70
2022-08-27T07:33:53.410Z,100247.74
2022-08-27T07:36:59.990Z,100251.67
2022-08-27T07:40:06.672Z,100243.52
2022-08-27T07:43:31.087Z,100241.56
2022-08-27T07:46:40.091Z,100235.09
2022-08-27T07:49:45.226Z,100228.08
2022-08-27T07:52:53.197Z,100231.67
2022-08-27T07:55:58.394Z,100231.13
2022-08-27T07:59:06.446Z,100231.95
2022-08-27T08:02:12.392Z,100229.44
2022-08-27T08:05:20.995Z,100230.78
2022-08-27T08:08:26.626Z,100231.04
2022-08-27T08:11:33.670Z,100242.27
2022-08-27T08:14:39.204Z,100230.99
2022-08-27T08:17:47.310Z,100216.34
2022-08-27T08:20:58.578Z,100225.28
2022-08-27T08:24:04.094Z,100229.81
2022-08-27T08:27:09.535Z,100228.94
2022-08-27T08:30:09.362Z,100232.84
2022-08-27T08:33:17.487Z,100226.55
2022-08-27T08:36:27.168Z,100218.61
2022-08-27T08:39:35.565Z,100213.48
2022-08-27T08:42:59.424Z,100213.97
2022-08-27T08:46:05.638Z,100218.45
2022-08-27T08:49:13.459Z,100205.75
2022-08-27T08:52:45.289Z,100200.34
2022-08-27T08:56:17.074Z,100196.91
2022-08-27T08:59:42.625Z,100197.41
2022-08-27T09:02:49.114Z,100188.88
2022-08-27T09:05:55.809Z,100184.58
2022-08-27T09:09:02.023Z,100183.37
2022-08-27T09:12:19.637Z,100179.11
2022-08-27T09:15:40.039Z,100174.61
2022-08-27T09:18:45.739Z,100180.70
2022-08-27T09:22:32.027Z,100178.95
2022-08-27T09:25:48.623Z,100176.64
2022-08-27T09:29:14.426Z,100173.16
2022-08-27T09:32:23.184Z,100166.86
2022-08-27T09:35:33.549Z,100172.69
2022-08-27T09:38:44.671Z,100172.28
2022-08-27T09:42:00.912Z,100173.90
2022-08-27T09:45:08.552Z,100171.53
2022-08-27T09:48:26.635Z,100169.75
2022-08-27T09:51:43.131Z,100175.33
2022-08-27T09:55:01.544Z,100168.52
2022-08-27T09:58:08.971Z,100171.77
2022-08-27T10:01:21.733Z,100183.78
2022-08-27T10:04:30.242Z,100174.02
2022-08-27T10:08:14.606Z,100169.29
2022-08-27T10:11:33.419Z,100162.59
2022-08-27T10:14:46.683Z,100172.53
2022-08-27T10:18:17.500Z,100171.41
2022-08-27T10:21:55.537Z,100165.61
2022-08-27T10:25:11.328Z,100168.80
2022-08-27T10:29:07.604Z,100168.80
2022-08-27T10:32:52.257Z,100171.85
2022-08-27T10:36:06.141Z,100171.85
2022-08-27T10:39:22.647Z,100170.77
2022-08-27T10:42:45.630Z,100170.77
2022-08-27T10:46:14.195Z,100180.22
2022-08-27T10:49:27.479Z,100178.44
2022-08-27T10:52:52.244Z,100177.58
2022-08-27T10:56:03.676Z,100177.20
2022-08-27T10:59:23.484Z,100178.61
2022-08-27T11:02:42.659Z,100171.86
2022-08-27T11:05:58.990Z,100174.27
2022-08-27T11:09:14.930Z,100178.57
2022-08-27T11:12:25.450Z,100180.01
2022-08-27T11:15:42.839Z,100183.12
2022-08-27T11:19:18.989Z,100183.72
2022-08-27T11:22:36.515Z,100199.86
2022-08-27T11:26:02.854Z,100193.34
2022-08-27T11:29:15.856Z,100194.19
2022-08-27T11:32:33.148Z,100193.89
2022-08-27T11:35:46.607Z,100187.80
2022-08-27T11:39:14.212Z,100187.80
2022-08-27T11:42:45.143Z,100184.57
2022-08-27T11:46:08.629Z,100169.00
2022-08-27T11:49:16.285Z,100172.47
2022-08-27T11:52:23.338Z,100165.29
2022-08-27T11:55:46.164Z,100163.20
2022-08-27T11:58:52.662Z,100147.00
2022-08-27T12:02:00.215Z,100145.09
2022-08-27T12:05:05.732Z,100129.56
2022-08-27T12:08:12.280Z,100135.80
2022-08-27T12:11:29.386Z,100136.13
2022-08-27T12:14:53.024Z,100127.63
2022-08-27T12:18:25.264Z,100125.39
2022-08-27T12:22:03.110Z,100110.12
2022-08-27T12:25:10.382Z,100108.38
2022-08-27T12:28:18.742Z,100102.91
2022-08-27T12:31:23.540Z,100095.55
2022-08-27T12:34:38.328Z,100089.44
2022-08-27T12:37:48.278Z,100091.27
2022-08-27T12:41:19.129Z,100081.98
2022-08-27T12:44:24.643Z,100080.84
2022-08-27T12:47:30.545Z,100081.35
2022-08-27T12:50:45.081Z,100076.50
2022-08-27T12:53:57.395Z,100072.85
2022-08-27T12:57:13.061Z,100081.73
2022-08-27T13:00:32.904Z,100080.05
2022-08-27T13:03:54.276Z,100074.76
2022-08-27T13:07:01.083Z,100075.66
2022-08-27T13:10:08.560Z,100081.17
2022-08-27T13:13:31.207Z,100080.55
2022-08-27T13:16:40.072Z,100086.42
2022-08-27T13:19:54.353Z,100079.72
2022-08-27T13:23:00.478Z,100080.05
2022-08-27T13:26:18.799Z,100082.64
2022-08-27T13:29:25.536Z,100074.92
2022-08-27T13:32:31.844Z,100086.11
2022-08-27T13:35:39.777Z,100086.70
2022-08-27T13:38:50.351Z,100086.27
2022-08-27T13:41:59.836Z,100086.93
2022-08-27T13:45:05.232Z,100083.09
2022-08-27T13:48:12.092Z,100083.41
2022-08-27T13:51:19.212Z,100080.95
2022-08-27T13:54:26.803Z,100084.75
2022-08-27T13:57:45.566Z,100080.63
2022-08-27T14:00:53.515Z,100081.20
2022-08-27T14:04:07.049Z,100081.80
2022-08-27T14:07:16.536Z,100093.45
2022-08-27T14:10:34.839Z,100082.77
2022-08-27T14:13:43.401Z,100087.95
2022-08-27T14:16:48.685Z,100085.27
2022-08-27T14:19:57.549Z,100083.91
2022-08-27T14:23:05.160Z,100091.30
2022-08-27T14:26:15.060Z,100082.93
2022-08-27T14:29:21.375Z,100087.00
2022-08-27T14:32:27.719Z,100088.14
2022-08-27T14:35:39.628Z,100086.40
2022-08-27T14:38:47.651Z,100079.61
2022-08-27T14:41:54.591Z,100083.57
2022-08-27T14:44:59.344Z,100071.89
2022-08-27T14:48:06.968Z,100071.83
2022-08-27T14:51:20.667Z,100073.36
2022-08-27T14:54:29.095Z,100077.15
2022-08-27T14:57:34.985Z,100071.85
2022-08-27T15:00:39.984Z,100074.00
2022-08-27T15:03:46.928Z,100078.15
2022-08-27T15:06:52.693Z,100067.33
2022-08-27T15:10:00.796Z,100065.41
2022-08-27T15:13:07.920Z,100061.53
2022-08-27T15:16:16.016Z,100059.46
2022-08-27T15:19:22.643Z,100054.84
2022-08-27T15:22:36.431Z,100053.58
2022-08-27T15:25:43.496Z,100060.83
2022-08-27T15:28:48.287Z,100053.87
2022-08-27T15:31:56.698Z,100053.80
2022-08-27T15:35:03.903Z,100057.02
2022-08-27T15:38:11.168Z,100054.87
2022-08-27T15:41:17.315Z,100059.81
2022-08-27T15:44:24.114Z,100050.66
2022-08-27T15:47:29.516Z,100061.00
2022-08-27T15:50:35.510Z,100068.00
2022-08-27T15:53:40.945Z,100068.23
2022-08-27T15:56:46.921Z,100068.85
2022-08-27T15:59:52.126Z,100066.05
2022-08-27T16:02:58.523Z,100071.86
2022-08-27T16:06:05.709Z,100072.11
2022-08-27T16:09:11.309Z,100072.58
2022-08-27T16:12:26.785Z,100083.20
2022-08-27T16:15:27.157Z,100076.86
2022-08-27T16:18:32.895Z,100079.86
2022-08-27T16:21:32.253Z,100080.03
2022-08-27T16:24:38.319Z,100076.78
2022-08-27T16:27:43.966Z,100078.89
2022-08-27T16:30:51.056Z,100080.16
2022-08-27T16:33:57.498Z,100073.80
2022-08-27T16:37:05.310Z,100076.17
2022-08-27T16:40:15.403Z,100075.44
2022-08-27T16:43:22.605Z,100079.23
2022-08-27T16:46:28.278Z,100083.89
2022-08-27T16:49:52.790Z,100086.55
2022-08-27T16:52:58.955Z,100084.13
2022-08-27T16:56:07.379Z,100088.44
2022-08-27T16:59:14.931Z,100089.34
2022-08-27T17:02:21.483Z,100092.80
2022-08-27T17:05:33.955Z,100092.88
2022-08-27T17:08:47.757Z,100099.69
2022-08-27T17:11:47.053Z,100090.73
2022-08-27T17:14:53.629Z,100089.95
2022-08-27T17:18:02.201Z,100096.75
2022-08-27T17:21:07.798Z,100098.52
2022-08-27T17:24:15.278Z,100096.84
2022-08-27T17:27:21.562Z,100103.11
2022-08-27T17:30:29.822Z,100108.81
2022-08-27T17:33:53.829Z,100115.66
2022-08-27T17:37:00.991Z,100099.98
2022-08-27T17:40:07.456Z,100087.16
2022-08-27T17:43:14.471Z,100130.73
2022-08-27T17:46:22.003Z,100132.96
2022-08-27T17:49:28.344Z,100145.87
2022-08-27T17:52:36.618Z,100140.53
2022-08-27T17:55:42.367Z,100144.11
2022-08-27T17:58:48.894Z,100151.06
2022-08-27T18:01:57.219Z,100165.89
2022-08-27T18:05:04.133Z,100175.37
2022-08-27T18:08:10.292Z,100181.52
2022-08-27T18:11:19.790Z,100189.32
2022-08-27T18:14:25.522Z,100187.00
2022-08-27T18:17:31.255Z,100193.39
2022-08-27T18:20:40.756Z,100189.98
2022-08-27T18:23:49.850Z,100198.06
2022-08-27T18:26:57.944Z,100206.70
2022-08-27T18:30:05.659Z,100208.33
2022-08-27T18:33:11.806Z,100212.48
2022-08-27T18:36:19.080Z,100207.96
2022-08-27T18:39:25.756Z,100210.45
2022-08-27T18:42:32.545Z,100212.66
2022-08-27T18:45:43.862Z,100211.80
2022-08-27T18:48:51.101Z,100207.84
2022-08-27T18:52:00.489Z,100212.79
2022-08-27T18:55:07.962Z,100209.36
2022-08-27T18:58:14.329Z,100210.13
2022-08-27T19:01:22.623Z,100203.34
2022-08-27T19:04:28.938Z,100204.95
2022-08-27T19:07:39.058Z,100202.37
2022-08-27T19:10:43.767Z,100199.78
2022-08-27T19:13:50.680Z,100202.24
2022-08-27T19:17:05.474Z,100201.05
2022-08-27T19:20:10.902Z,100195.30
2022-08-27T19:23:16.078Z,100204.39
2022-08-27T19:26:30.347Z,100192.02
2022-08-27T19:29:36.814Z,100197.00
2022-08-27T19:32:42.075Z,100194.16
2022-08-27T19:35:52.366Z,100196.02
2022-08-27T19:39:08.068Z,100190.94
2022-08-27T19:42:16.552Z,100197.83
2022-08-27T19:45:28.648Z,100197.16
2022-08-27T19:48:35.840Z,100198.48
2022-08-27T19:51:42.703Z,100200.66
2022-08-27T19:55:10.235Z,100194.80
2022-08-27T19:57:58.652Z,100197.28
2022-08-27T20:01:05.079Z,100196.73
2022-08-27T20:04:10.813Z,100198.13
2022-08-27T20:07:15.975Z,100198.98
2022-08-27T20:10:21.617Z,100198.16
2022-08-27T20:13:33.020Z,100200.14
2022-08-27T20:16:38.019Z,100201.33
2022-08-27T20:19:47.717Z,100200.50
2022-08-27T20:22:55.505Z,100199.06
2022-08-27T20:26:01.678Z,100198.67
2022-08-27T20:29:03.879Z,100196.45
2022-08-27T20:32:03.740Z,100196.61
2022-08-27T20:35:11.280Z,100203.50
2022-08-27T20:38:16.836Z,100194.80
2022-08-27T20:41:26.060Z,100192.55
2022-08-27T20:44:32.429Z,100192.25
2022-08-27T20:47:39.417Z,100191.11
2022-08-27T20:50:46.695Z,100195.24
2022-08-27T20:53:52.978Z,100201.62
2022-08-27T20:56:59.543Z,100194.28
2022-08-27T21:00:23.927Z,100181.65
2022-08-27T21:03:31.031Z,100177.70
2022-08-27T21:06:36.797Z,100176.22
2022-08-27T21:09:55.447Z,100170.88
2022-08-27T21:12:50.234Z,100173.33
2022-08-27T21:15:56.916Z,100169.09
2022-08-27T21:19:03.687Z,100160.72
2022-08-27T21:22:08.816Z,100169.94
2022-08-27T21:25:15.095Z,100168.30
2022-08-27T21:28:22.172Z,100173.33
2022-08-27T21:31:28.520Z,100166.62
2022-08-27T21:34:35.338Z,100167.70
2022-08-27T21:37:41.298Z,100168.80
2022-08-27T21:40:46.880Z,100172.98
2022-08-27T21:43:54.239Z,100170.74
2022-08-27T21:47:00.811Z,100173.78
2022-08-27T21:50:08.497Z,100169.58
2022-08-27T21:53:14.257Z,100167.64
2022-08-27T21:56:20.414Z,100173.78
2022-08-27T21:59:26.974Z,100171.83
2022-08-27T22:02:40.335Z,100163.72
2022-08-27T22:05:45.157Z,100163.41
2022-08-27T22:08:52.042Z,100158.63
2022-08-27T22:11:59.418Z,100147.47
2022-08-27T22:15:09.267Z,100153.96
2022-08-27T22:18:15.837Z,100151.48
2022-08-27T22:21:21.501Z,100147.38
2022-08-27T22:24:27.881Z,100149.12
2022-08-27T22:27:34.854Z,100151.92
2022-08-27T22:30:41.852Z,100145.27
2022-08-27T22:33:49.124Z,100145.55
2022-08-27T22:36:56.819Z,100143.90
2022-08-27T22:40:03.535Z,100146.66
2022-08-27T22:43:10.378Z,100146.66
2022-08-27T22:46:17.499Z,100139.70
2022-08-27T22:49:24.032Z,100142.17
2022-08-27T22:52:29.328Z,100140.49
2022-08-27T22:55:38.000Z,100138.22
2022-08-27T22:58:46.265Z,100133.44
2022-08-27T23:01:55.268Z,100143.77
2022-08-27T23:05:03.566Z,100132.84
2022-08-27T23:08:09.053Z,100135.33
2022-08-27T23:11:15.901Z,100137.78
2022-08-27T23:14:22.789Z,100138.31
2022-08-27T23:17:30.877Z,100132.48
2022-08-27T23:20:37.857Z,100128.02
2022-08-27T23:23:44.634Z,100128.02
2022-08-27T23:27:08.631Z,100127.50
2022-08-27T23:30:17.040Z,100130.27
2022-08-27T23:33:17.842Z,100128.55
2022-08-27T23:36:18.197Z,100125.17
2022-08-27T23:39:23.857Z,100129.92
2022-08-27T23:42:30.221Z,100131.01
2022-08-27T23:45:40.584Z,100136.30
2022-08-27T23:48:46.671Z,100140.11
2022-08-27T23:51:52.290Z,100138.92
2022-08-27T23:54:58.153Z,100142.22
2022-08-27T23:58:04.677Z,100138.17
